createdAt,value
2023-04-27T00:00:09.890Z,88.62
2023-04-27T00:01:09.863Z,89.13
2023-04-27T00:02:09.897Z,89.40
2023-04-27T00:03:10.185Z,88.82
2023-04-27T00:04:10.057Z,88.98
2023-04-27T00:05:09.941Z,89.03
2023-04-27T00:06:10.039Z,89.03
2023-04-27T00:07:09.833Z,89.19
2023-04-27T00:08:09.806Z,89.34
2023-04-27T00:09:09.766Z,88.41
2023-04-27T00:10:09.766Z,87.55
2023-04-27T00:11:09.747Z,86.97
2023-04-27T00:12:09.727Z,87.18
2023-04-27T00:13:09.731Z,86.87
2023-04-27T00:14:09.695Z,86.56
2023-04-27T00:15:09.682Z,86.35
2023-04-27T00:16:09.726Z,86.42
2023-04-27T00:17:09.668Z,86.56
2023-04-27T00:18:09.716Z,87.28
2023-04-27T00:19:09.631Z,87.59
2023-04-27T00:20:09.612Z,87.79
2023-04-27T00:21:09.591Z,87.49
2023-04-27T00:22:09.618Z,88.00
2023-04-27T00:23:09.581Z,88.10
2023-04-27T00:24:09.562Z,88.00
2023-04-27T00:25:09.568Z,88.31
2023-04-27T00:26:09.534Z,88.31
2023-04-27T00:27:09.520Z,88.31
2023-04-27T00:28:09.506Z,88.51
2023-04-27T00:29:09.486Z,88.72
2023-04-27T00:30:09.478Z,88.82
2023-04-27T00:31:09.461Z,88.62
2023-04-27T00:32:09.513Z,88.31
2023-04-27T00:33:09.452Z,88.10
2023-04-27T00:34:09.424Z,87.69
2023-04-27T00:35:09.413Z,87.79
2023-04-27T00:36:09.398Z,89.03
2023-04-27T00:37:09.386Z,88.41
2023-04-27T00:38:09.407Z,87.79
2023-04-27T00:39:09.362Z,87.73
2023-04-27T00:40:09.355Z,87.18
2023-04-27T00:41:09.327Z,87.49
2023-04-27T00:42:09.313Z,86.97
2023-04-27T00:43:09.323Z,86.46
2023-04-27T00:44:09.734Z,86.25
2023-04-27T00:45:09.278Z,86.15
2023-04-27T00:46:09.328Z,86.29
2023-04-27T00:47:09.251Z,86.19
2023-04-27T00:48:09.317Z,86.40
2023-04-27T00:49:09.238Z,87.79
2023-04-27T00:50:09.217Z,87.73
2023-04-27T00:51:09.193Z,87.52
2023-04-27T00:52:09.186Z,86.91
2023-04-27T00:53:09.185Z,87.42
2023-04-27T00:54:09.175Z,88.14
2023-04-27T00:55:09.135Z,88.66
2023-04-27T00:56:09.159Z,89.38
2023-04-27T00:57:09.117Z,89.38
2023-04-27T00:58:09.101Z,89.38
2023-04-27T00:59:09.105Z,88.76
2023-04-27T01:00:09.076Z,87.94
2023-04-27T01:01:10.528Z,88.56
2023-04-27T01:02:09.121Z,89.22
2023-04-27T01:03:09.139Z,90.00
2023-04-27T01:04:09.391Z,90.30
2023-04-27T01:05:09.027Z,90.09
2023-04-27T01:06:08.988Z,90.09
2023-04-27T01:07:08.992Z,90.00
2023-04-27T01:08:08.966Z,89.89
2023-04-27T01:09:08.946Z,89.28
2023-04-27T01:10:09.228Z,89.42
2023-04-27T01:11:08.929Z,89.62
2023-04-27T01:12:08.922Z,89.58
2023-04-27T01:13:08.900Z,89.79
2023-04-27T01:14:08.891Z,90.00
2023-04-27T01:15:08.873Z,90.20
2023-04-27T01:16:08.858Z,89.31
2023-04-27T01:17:08.961Z,88.35
2023-04-27T01:18:08.866Z,87.98
2023-04-27T01:19:08.837Z,88.39
2023-04-27T01:20:08.843Z,88.70
2023-04-27T01:21:08.788Z,88.90
2023-04-27T01:22:08.771Z,88.80
2023-04-27T01:23:08.772Z,89.11
2023-04-27T01:24:08.749Z,89.52
2023-04-27T01:25:08.747Z,89.73
2023-04-27T01:26:08.826Z,89.31
2023-04-27T01:27:08.714Z,89.42
2023-04-27T01:28:08.702Z,89.87
2023-04-27T01:29:08.682Z,90.03
2023-04-27T01:30:08.675Z,90.14
2023-04-27T01:31:08.681Z,90.24
2023-04-27T01:32:08.712Z,90.18
2023-04-27T01:33:08.797Z,89.31
2023-04-27T01:34:08.617Z,88.90
2023-04-27T01:35:08.620Z,89.01
2023-04-27T01:36:08.585Z,88.90
2023-04-27T01:37:08.576Z,88.70
2023-04-27T01:38:08.561Z,89.05
2023-04-27T01:39:08.547Z,88.95
2023-04-27T01:40:08.541Z,89.05
2023-04-27T01:41:08.529Z,89.67
2023-04-27T01:42:08.535Z,90.59
2023-04-27T01:43:08.503Z,91.31
2023-04-27T01:44:08.485Z,91.72
2023-04-27T01:45:08.573Z,92.03
2023-04-27T01:46:08.531Z,91.52
2023-04-27T01:47:08.449Z,91.52
2023-04-27T01:48:08.466Z,92.03
2023-04-27T01:49:08.412Z,92.34
2023-04-27T01:50:08.402Z,92.44
2023-04-27T01:51:08.386Z,92.65
2023-04-27T01:52:08.385Z,92.76
2023-04-27T01:53:08.365Z,92.96
2023-04-27T01:54:08.356Z,93.27
2023-04-27T01:55:08.600Z,93.37
2023-04-27T01:56:08.331Z,93.27
2023-04-27T01:57:08.317Z,93.48
2023-04-27T01:58:08.388Z,93.68
2023-04-27T01:59:08.290Z,93.73
2023-04-27T02:00:08.302Z,93.58
2023-04-27T02:01:08.263Z,93.68
2023-04-27T02:02:08.359Z,93.68
2023-04-27T02:03:08.314Z,93.52
2023-04-27T02:04:08.403Z,93.58
2023-04-27T02:05:08.211Z,93.93
2023-04-27T02:06:08.195Z,93.99
2023-04-27T02:07:08.377Z,94.20
2023-04-27T02:08:08.166Z,94.20
2023-04-27T02:09:08.151Z,93.99
2023-04-27T02:10:08.150Z,93.68
2023-04-27T02:11:08.138Z,93.52
2023-04-27T02:12:08.258Z,93.16
2023-04-27T02:13:08.294Z,92.90
2023-04-27T02:14:08.107Z,93.01
2023-04-27T02:15:08.167Z,92.44
2023-04-27T02:16:08.437Z,92.03
2023-04-27T02:17:08.043Z,91.97
2023-04-27T02:18:08.104Z,92.65
2023-04-27T02:19:08.013Z,93.31
2023-04-27T02:20:08.023Z,93.31
2023-04-27T02:21:07.987Z,93.16
2023-04-27T02:22:07.976Z,92.96
2023-04-27T02:23:07.961Z,92.65
2023-04-27T02:24:07.952Z,92.69
2023-04-27T02:25:07.936Z,92.69
2023-04-27T02:26:08.130Z,92.90
2023-04-27T02:27:07.911Z,92.76
2023-04-27T02:28:07.898Z,92.90
2023-04-27T02:29:08.198Z,93.11
2023-04-27T02:30:07.892Z,92.80
2023-04-27T02:31:08.324Z,92.38
2023-04-27T02:32:07.853Z,92.08
2023-04-27T02:33:08.244Z,92.49
2023-04-27T02:34:07.819Z,92.49
2023-04-27T02:35:07.801Z,92.59
2023-04-27T02:36:07.792Z,93.11
2023-04-27T02:37:07.775Z,93.11
2023-04-27T02:38:07.781Z,93.31
2023-04-27T02:39:07.761Z,93.31
2023-04-27T02:40:07.772Z,93.21
2023-04-27T02:41:07.726Z,93.01
2023-04-27T02:42:07.729Z,93.05
2023-04-27T02:43:07.698Z,93.11
2023-04-27T02:44:07.691Z,93.15
2023-04-27T02:45:07.675Z,92.94
2023-04-27T02:46:07.719Z,92.94
2023-04-27T02:47:07.701Z,92.94
2023-04-27T02:48:07.683Z,93.05
2023-04-27T02:49:07.635Z,92.63
2023-04-27T02:50:07.613Z,92.63
2023-04-27T02:51:07.590Z,92.53
2023-04-27T02:52:07.580Z,92.53
2023-04-27T02:53:07.577Z,92.63
2023-04-27T02:54:07.558Z,93.15
2023-04-27T02:55:07.539Z,93.35
2023-04-27T02:56:07.537Z,93.66
2023-04-27T02:57:07.510Z,94.08
2023-04-27T02:58:07.504Z,94.08
2023-04-27T02:59:07.484Z,94.18
2023-04-27T03:00:07.470Z,94.18
2023-04-27T03:01:07.543Z,94.08
2023-04-27T03:02:07.469Z,93.77
2023-04-27T03:03:07.553Z,93.77
2023-04-27T03:04:07.561Z,93.98
2023-04-27T03:05:07.401Z,93.98
2023-04-27T03:06:07.396Z,94.28
2023-04-27T03:07:07.387Z,94.08
2023-04-27T03:08:07.363Z,93.87
2023-04-27T03:09:07.351Z,93.87
2023-04-27T03:10:07.383Z,93.66
2023-04-27T03:11:07.364Z,93.77
2023-04-27T03:12:07.313Z,93.77
2023-04-27T03:13:07.296Z,93.56
2023-04-27T03:14:07.291Z,93.46
2023-04-27T03:15:07.319Z,93.66
2023-04-27T03:16:07.301Z,93.77
2023-04-27T03:17:07.389Z,93.71
2023-04-27T03:18:07.341Z,93.81
2023-04-27T03:19:07.317Z,93.77
2023-04-27T03:20:07.214Z,93.60
2023-04-27T03:21:07.193Z,93.56
2023-04-27T03:22:07.188Z,93.81
2023-04-27T03:23:07.216Z,93.66
2023-04-27T03:24:07.151Z,93.98
2023-04-27T03:25:07.157Z,94.23
2023-04-27T03:26:07.128Z,94.43
2023-04-27T03:27:07.424Z,94.53
2023-04-27T03:28:07.101Z,94.02
2023-04-27T03:29:07.177Z,93.91
2023-04-27T03:30:07.075Z,93.81
2023-04-27T03:31:07.063Z,93.81
2023-04-27T03:32:07.202Z,94.02
2023-04-27T03:33:07.450Z,94.02
2023-04-27T03:34:07.031Z,94.23
2023-04-27T03:35:07.026Z,94.23
2023-04-27T03:36:06.985Z,94.12
2023-04-27T03:37:06.986Z,94.02
2023-04-27T03:38:06.981Z,94.02
2023-04-27T03:39:06.955Z,94.12
2023-04-27T03:40:06.941Z,94.23
2023-04-27T03:41:06.919Z,94.23
2023-04-27T03:42:06.909Z,94.12
2023-04-27T03:43:06.901Z,93.71
2023-04-27T03:44:06.888Z,93.50
2023-04-27T03:45:06.868Z,93.30
2023-04-27T03:46:06.880Z,93.50
2023-04-27T03:47:06.845Z,93.71
2023-04-27T03:48:06.881Z,93.81
2023-04-27T03:49:06.812Z,93.96
2023-04-27T03:50:06.825Z,93.85
2023-04-27T03:51:06.799Z,94.17
2023-04-27T03:52:06.773Z,94.32
2023-04-27T03:53:06.767Z,94.47
2023-04-27T03:54:06.755Z,94.47
2023-04-27T03:55:06.737Z,94.02
2023-04-27T03:56:06.716Z,93.96
2023-04-27T03:57:06.745Z,93.81
2023-04-27T03:58:06.694Z,93.60
2023-04-27T03:59:06.703Z,93.50
2023-04-27T04:00:06.669Z,93.44
2023-04-27T04:01:06.672Z,93.34
2023-04-27T04:02:06.708Z,93.24
2023-04-27T04:03:06.998Z,93.24
2023-04-27T04:04:06.849Z,93.19
2023-04-27T04:05:06.726Z,93.09
2023-04-27T04:06:06.622Z,93.24
2023-04-27T04:07:06.575Z,93.44
2023-04-27T04:08:06.570Z,93.54
2023-04-27T04:09:06.547Z,93.54
2023-04-27T04:10:06.528Z,93.60
2023-04-27T04:11:06.524Z,93.91
2023-04-27T04:12:06.507Z,93.96
2023-04-27T04:13:06.505Z,93.96
2023-04-27T04:14:06.485Z,93.85
2023-04-27T04:15:06.468Z,93.85
2023-04-27T04:16:06.516Z,93.85
2023-04-27T04:17:06.456Z,93.85
2023-04-27T04:18:06.480Z,93.85
2023-04-27T04:19:06.421Z,93.85
2023-04-27T04:20:06.413Z,94.06
2023-04-27T04:21:06.408Z,94.06
2023-04-27T04:22:06.396Z,94.47
2023-04-27T04:23:06.370Z,94.78
2023-04-27T04:24:06.357Z,94.78
2023-04-27T04:25:06.337Z,94.68
2023-04-27T04:26:06.321Z,94.64
2023-04-27T04:27:06.313Z,94.68
2023-04-27T04:28:06.296Z,94.78
2023-04-27T04:29:06.903Z,94.78
2023-04-27T04:30:06.433Z,94.99
2023-04-27T04:31:06.324Z,95.05
2023-04-27T04:32:06.257Z,95.05
2023-04-27T04:33:06.329Z,95.09
2023-04-27T04:34:06.274Z,95.15
2023-04-27T04:35:06.246Z,95.15
2023-04-27T04:36:06.188Z,95.25
2023-04-27T04:37:06.285Z,95.25
2023-04-27T04:38:06.262Z,95.40
2023-04-27T04:39:06.147Z,95.36
2023-04-27T04:40:06.136Z,95.40
2023-04-27T04:41:06.125Z,95.36
2023-04-27T04:42:06.128Z,95.15
2023-04-27T04:43:06.110Z,95.05
2023-04-27T04:44:06.087Z,94.95
2023-04-27T04:45:06.065Z,94.95
2023-04-27T04:46:06.089Z,94.95
2023-04-27T04:47:06.043Z,94.95
2023-04-27T04:48:06.078Z,94.53
2023-04-27T04:49:06.012Z,94.53
2023-04-27T04:50:06.053Z,94.53
2023-04-27T04:51:05.991Z,94.74
2023-04-27T04:52:05.971Z,94.84
2023-04-27T04:53:05.960Z,95.05
2023-04-27T04:54:05.976Z,95.05
2023-04-27T04:55:05.939Z,94.95
2023-04-27T04:56:05.944Z,94.95
2023-04-27T04:57:05.910Z,95.15
2023-04-27T04:58:05.891Z,95.25
2023-04-27T04:59:05.879Z,95.05
2023-04-27T05:00:05.870Z,95.05
2023-04-27T05:01:05.963Z,95.05
2023-04-27T05:02:05.903Z,94.80
2023-04-27T05:03:05.910Z,94.59
2023-04-27T05:04:05.994Z,94.80
2023-04-27T05:05:05.805Z,94.80
2023-04-27T05:06:05.787Z,94.90
2023-04-27T05:07:05.783Z,94.53
2023-04-27T05:08:05.763Z,94.28
2023-04-27T05:09:05.965Z,94.28
2023-04-27T05:10:05.765Z,94.08
2023-04-27T05:11:39.451Z,93.98
2023-04-27T05:12:39.443Z,93.98
2023-04-27T05:13:39.426Z,94.18
2023-04-27T05:14:39.413Z,94.13
2023-04-27T05:15:39.388Z,93.87
2023-04-27T05:16:39.442Z,93.77
2023-04-27T05:17:39.386Z,93.87
2023-04-27T05:18:39.356Z,93.62
2023-04-27T05:19:39.338Z,93.62
2023-04-27T05:20:39.324Z,93.46
2023-04-27T05:21:39.314Z,93.52
2023-04-27T05:22:39.301Z,93.73
2023-04-27T05:23:39.297Z,93.48
2023-04-27T05:24:39.283Z,93.41
2023-04-27T05:25:39.286Z,93.52
2023-04-27T05:26:39.253Z,93.41
2023-04-27T05:27:39.231Z,93.31
2023-04-27T05:28:39.221Z,93.27
2023-04-27T05:29:39.205Z,93.41
2023-04-27T05:30:39.216Z,93.11
2023-04-27T05:31:39.246Z,92.90
2023-04-27T05:32:39.206Z,92.80
2023-04-27T05:33:39.159Z,92.90
2023-04-27T05:34:39.155Z,92.96
2023-04-27T05:35:39.134Z,92.96
2023-04-27T05:36:39.119Z,93.21
2023-04-27T05:37:39.106Z,93.41
2023-04-27T05:38:39.100Z,93.48
2023-04-27T05:39:39.067Z,93.58
2023-04-27T05:40:39.056Z,93.58
2023-04-27T05:41:39.085Z,93.37
2023-04-27T05:42:39.044Z,92.96
2023-04-27T05:43:39.054Z,92.76
2023-04-27T05:44:39.005Z,92.50
2023-04-27T05:45:39.017Z,91.99
2023-04-27T05:46:39.086Z,91.27
2023-04-27T05:47:38.995Z,91.06
2023-04-27T05:48:38.961Z,91.02
2023-04-27T05:49:38.946Z,91.13
2023-04-27T05:50:38.931Z,90.81
2023-04-27T05:51:38.932Z,90.30
2023-04-27T05:52:38.929Z,89.64
2023-04-27T05:53:38.886Z,89.85
2023-04-27T05:54:38.881Z,90.16
2023-04-27T05:55:38.873Z,90.47
2023-04-27T05:56:39.198Z,89.75
2023-04-27T05:57:38.854Z,89.19
2023-04-27T05:58:38.823Z,88.37
2023-04-27T05:59:38.804Z,88.23
2023-04-27T06:00:38.798Z,88.23
2023-04-27T06:01:38.777Z,87.71
2023-04-27T06:02:38.867Z,87.61
2023-04-27T06:03:38.937Z,87.37
2023-04-27T06:04:38.825Z,87.05
2023-04-27T06:05:38.764Z,87.05
2023-04-27T06:06:38.723Z,87.16
2023-04-27T06:07:38.702Z,86.30
2023-04-27T06:08:38.688Z,85.78
2023-04-27T06:09:38.683Z,86.09
2023-04-27T06:10:38.663Z,85.78
2023-04-27T06:11:38.643Z,85.47
2023-04-27T06:12:38.629Z,85.38
2023-04-27T06:13:38.663Z,85.27
2023-04-27T06:14:38.631Z,85.06
2023-04-27T06:15:38.631Z,85.17
2023-04-27T06:16:38.577Z,85.38
2023-04-27T06:17:38.605Z,85.23
2023-04-27T06:18:38.563Z,85.33
2023-04-27T06:19:38.567Z,84.31
2023-04-27T06:20:38.528Z,83.86
2023-04-27T06:21:38.511Z,84.06
2023-04-27T06:22:38.509Z,84.37
2023-04-27T06:23:38.484Z,84.37
2023-04-27T06:24:38.584Z,83.65
2023-04-27T06:25:38.464Z,83.45
2023-04-27T06:26:38.447Z,83.41
2023-04-27T06:27:38.439Z,82.93
2023-04-27T06:28:38.435Z,83.61
2023-04-27T06:29:38.584Z,83.92
2023-04-27T06:30:39.590Z,84.23
2023-04-27T06:31:38.427Z,83.72
2023-04-27T06:32:38.419Z,82.65
2023-04-27T06:33:38.349Z,83.17
2023-04-27T06:34:38.492Z,83.37
2023-04-27T06:35:38.376Z,82.31
2023-04-27T06:36:38.307Z,81.79
2023-04-27T06:37:38.298Z,80.77
2023-04-27T06:38:38.449Z,80.83
2023-04-27T06:39:38.272Z,81.01
2023-04-27T06:40:38.261Z,80.56
2023-04-27T06:41:38.394Z,80.69
2023-04-27T06:42:38.226Z,79.78
2023-04-27T06:43:38.421Z,79.98
2023-04-27T06:44:38.204Z,79.57
2023-04-27T06:45:38.515Z,79.74
2023-04-27T06:46:38.225Z,78.24
2023-04-27T06:47:38.275Z,77.80
2023-04-27T06:48:38.143Z,79.16
2023-04-27T06:49:38.139Z,78.52
2023-04-27T06:50:38.121Z,78.20
2023-04-27T06:51:38.106Z,78.78
2023-04-27T06:52:38.289Z,78.27
2023-04-27T06:53:38.083Z,77.76
2023-04-27T06:54:38.092Z,78.07
2023-04-27T06:55:38.066Z,77.52
2023-04-27T06:56:38.040Z,77.11
2023-04-27T06:57:38.044Z,76.81
2023-04-27T06:58:38.017Z,75.48
2023-04-27T06:59:38.003Z,75.58
2023-04-27T07:00:38.001Z,75.89
2023-04-27T07:01:38.063Z,78.03
2023-04-27T07:02:38.002Z,76.70
2023-04-27T07:03:38.175Z,77.08
2023-04-27T07:04:38.013Z,75.48
2023-04-27T07:05:37.925Z,75.85
2023-04-27T07:06:37.902Z,75.75
2023-04-27T07:07:37.898Z,74.79
2023-04-27T07:08:37.883Z,74.38
2023-04-27T07:09:37.922Z,75.78
2023-04-27T07:10:37.856Z,74.05
2023-04-27T07:11:37.845Z,72.99
2023-04-27T07:12:37.922Z,72.38
2023-04-27T07:13:37.809Z,72.89
2023-04-27T07:14:37.799Z,72.45
2023-04-27T07:15:37.785Z,72.55
2023-04-27T07:16:38.043Z,70.31
2023-04-27T07:17:37.798Z,71.50
2023-04-27T07:18:37.755Z,71.12
2023-04-27T07:19:37.734Z,70.72
2023-04-27T07:20:37.718Z,69.90
2023-04-27T07:21:37.704Z,69.19
2023-04-27T07:22:37.695Z,68.24
2023-04-27T07:23:37.683Z,68.75
2023-04-27T07:24:37.666Z,70.24
2023-04-27T07:25:37.658Z,68.71
2023-04-27T07:26:37.714Z,68.79
2023-04-27T07:27:37.625Z,68.65
2023-04-27T07:28:37.657Z,68.04
2023-04-27T07:29:37.609Z,68.55
2023-04-27T07:30:37.685Z,67.50
2023-04-27T07:31:37.655Z,65.91
2023-04-27T07:32:37.560Z,63.68
2023-04-27T07:33:37.564Z,64.15
2023-04-27T07:34:52.100Z,62.84
2023-04-27T07:35:38.656Z,65.24
2023-04-27T07:36:37.505Z,63.49
2023-04-27T07:37:37.502Z,62.24
2023-04-27T07:38:37.483Z,60.79
2023-04-27T07:39:37.463Z,59.81
2023-04-27T07:40:37.445Z,61.02
2023-04-27T07:41:37.439Z,61.20
2023-04-27T07:42:37.535Z,60.46
2023-04-27T07:43:37.411Z,59.63
2023-04-27T07:44:37.503Z,58.58
2023-04-27T07:45:37.416Z,58.34
2023-04-27T07:46:37.369Z,59.85
2023-04-27T07:47:37.382Z,59.55
2023-04-27T07:48:37.372Z,60.53
2023-04-27T07:49:37.378Z,59.09
2023-04-27T07:50:37.361Z,58.65
2023-04-27T07:51:37.300Z,58.36
2023-04-27T07:52:37.336Z,57.75
2023-04-27T07:53:37.280Z,59.54
2023-04-27T07:54:37.265Z,58.80
2023-04-27T07:55:37.248Z,55.67
2023-04-27T07:56:37.241Z,57.59
2023-04-27T07:57:37.222Z,57.16
2023-04-27T07:58:37.213Z,57.64
2023-04-27T07:59:37.202Z,57.43
2023-04-27T08:00:37.191Z,56.63
2023-04-27T08:01:37.195Z,56.27
2023-04-27T08:02:37.312Z,55.69
2023-04-27T08:03:37.302Z,54.18
2023-04-27T08:04:37.659Z,55.11
2023-04-27T08:05:37.402Z,56.81
2023-04-27T08:06:37.781Z,55.66
2023-04-27T08:07:41.189Z,55.16
2023-04-27T08:08:38.103Z,55.26
2023-04-27T08:09:37.073Z,56.50
2023-04-27T08:10:37.109Z,56.17
2023-04-27T08:11:37.046Z,56.82
2023-04-27T08:12:37.031Z,56.80
2023-04-27T08:13:37.017Z,53.95
2023-04-27T08:14:37.000Z,52.97
2023-04-27T08:15:37.003Z,53.00
2023-04-27T08:16:37.020Z,54.08
2023-04-27T08:17:36.983Z,53.14
2023-04-27T08:18:36.955Z,52.57
2023-04-27T08:19:36.941Z,51.26
2023-04-27T08:20:36.928Z,52.29
2023-04-27T08:21:36.930Z,52.22
2023-04-27T08:22:37.148Z,54.53
2023-04-27T08:23:36.888Z,54.16
2023-04-27T08:24:36.871Z,54.10
2023-04-27T08:25:36.863Z,54.79
2023-04-27T08:26:36.846Z,52.42
2023-04-27T08:27:36.831Z,52.77
2023-04-27T08:28:36.829Z,51.26
2023-04-27T08:29:36.818Z,50.08
2023-04-27T08:30:36.796Z,52.22
2023-04-27T08:31:36.815Z,51.81
2023-04-27T08:32:36.797Z,52.26
2023-04-27T08:33:36.760Z,50.53
2023-04-27T08:34:36.747Z,51.24
2023-04-27T08:35:36.734Z,50.53
2023-04-27T08:36:36.715Z,50.01
2023-04-27T08:37:36.736Z,51.51
2023-04-27T08:38:36.689Z,49.78
2023-04-27T08:39:36.681Z,48.68
2023-04-27T08:40:36.666Z,49.76
2023-04-27T08:41:36.659Z,50.24
2023-04-27T08:42:36.647Z,47.91
2023-04-27T08:43:36.630Z,47.93
2023-04-27T08:44:36.614Z,46.83
2023-04-27T08:45:36.612Z,46.65
2023-04-27T08:46:36.614Z,49.43
2023-04-27T08:47:43.362Z,48.49
2023-04-27T08:48:37.589Z,47.46
2023-04-27T08:49:36.550Z,44.56
2023-04-27T08:50:36.535Z,45.04
2023-04-27T08:51:36.529Z,44.24
2023-04-27T08:52:36.697Z,45.06
2023-04-27T08:53:36.530Z,44.34
2023-04-27T08:54:36.938Z,42.83
2023-04-27T08:55:36.501Z,47.61
2023-04-27T08:56:36.462Z,45.39
2023-04-27T08:57:36.457Z,44.27
2023-04-27T08:58:36.462Z,45.95
2023-04-27T08:59:36.435Z,45.55
2023-04-27T09:00:36.427Z,42.49
2023-04-27T09:01:36.437Z,42.90
2023-04-27T09:02:36.519Z,42.13
2023-04-27T09:03:36.550Z,41.74
2023-04-27T09:04:36.518Z,40.73
2023-04-27T09:05:36.397Z,44.04
2023-04-27T09:06:36.427Z,44.74
2023-04-27T09:07:36.494Z,44.84
2023-04-27T09:08:36.311Z,46.72
2023-04-27T09:09:36.332Z,45.69
2023-04-27T09:10:36.308Z,44.21
2023-04-27T09:11:36.275Z,44.84
2023-04-27T09:12:36.278Z,44.43
2023-04-27T09:13:36.250Z,44.12
2023-04-27T09:14:36.253Z,45.29
2023-04-27T09:15:36.224Z,44.87
2023-04-27T09:16:36.255Z,44.85
2023-04-27T09:17:36.228Z,42.97
2023-04-27T09:18:36.224Z,42.33
2023-04-27T09:19:36.177Z,43.46
2023-04-27T09:20:36.182Z,44.04
2023-04-27T09:21:36.156Z,43.41
2023-04-27T09:22:36.139Z,45.24
2023-04-27T09:23:36.126Z,44.04
2023-04-27T09:24:36.107Z,41.55
2023-04-27T09:25:36.188Z,42.49
2023-04-27T09:26:36.096Z,44.60
2023-04-27T09:27:36.079Z,44.40
2023-04-27T09:28:36.055Z,44.20
2023-04-27T09:29:36.089Z,42.99
2023-04-27T09:30:36.038Z,43.30
2023-04-27T09:31:36.094Z,43.80
2023-04-27T09:32:36.055Z,43.19
2023-04-27T09:33:35.999Z,45.30
2023-04-27T09:34:35.997Z,43.90
2023-04-27T09:35:35.987Z,43.98
2023-04-27T09:36:35.975Z,44.58
2023-04-27T09:37:35.959Z,42.54
2023-04-27T09:38:35.950Z,40.95
2023-04-27T09:39:36.415Z,42.49
2023-04-27T09:40:35.914Z,42.41
2023-04-27T09:41:35.918Z,42.94
2023-04-27T09:42:35.942Z,45.95
2023-04-27T09:43:35.874Z,43.72
2023-04-27T09:44:35.861Z,43.92
2023-04-27T09:45:35.880Z,41.71
2023-04-27T09:46:35.843Z,42.13
2023-04-27T09:47:35.829Z,43.76
2023-04-27T09:48:35.802Z,43.96
2023-04-27T09:49:35.797Z,44.36
2023-04-27T09:50:37.896Z,43.96
2023-04-27T09:51:35.770Z,43.34
2023-04-27T09:52:35.770Z,43.92
2023-04-27T09:53:35.749Z,42.90
2023-04-27T09:54:35.728Z,41.07
2023-04-27T09:55:35.786Z,41.75
2023-04-27T09:56:35.705Z,41.24
2023-04-27T09:57:35.718Z,40.41
2023-04-27T09:58:35.678Z,40.45
2023-04-27T09:59:35.667Z,43.05
2023-04-27T10:00:35.673Z,40.95
2023-04-27T10:01:37.279Z,41.67
2023-04-27T10:02:42.956Z,40.97
2023-04-27T10:03:36.686Z,41.75
2023-04-27T10:04:35.850Z,41.15
2023-04-27T10:05:35.584Z,43.08
2023-04-27T10:06:35.571Z,43.46
2023-04-27T10:07:35.556Z,40.59
2023-04-27T10:08:35.546Z,42.32
2023-04-27T10:09:35.535Z,42.33
2023-04-27T10:10:35.522Z,43.06
2023-04-27T10:11:35.515Z,44.28
2023-04-27T10:12:35.500Z,43.10
2023-04-27T10:13:35.519Z,44.40
2023-04-27T10:14:35.474Z,44.12
2023-04-27T10:15:35.462Z,44.40
2023-04-27T10:16:35.479Z,45.75
2023-04-27T10:17:35.479Z,44.88
2023-04-27T10:18:35.429Z,43.82
2023-04-27T10:19:35.409Z,42.65
2023-04-27T10:20:35.391Z,40.83
2023-04-27T10:21:35.381Z,40.01
2023-04-27T10:22:36.102Z,39.24
2023-04-27T10:23:35.352Z,40.12
2023-04-27T10:24:35.342Z,39.90
2023-04-27T10:25:35.331Z,40.86
2023-04-27T10:26:37.358Z,39.26
2023-04-27T10:27:35.312Z,38.15
2023-04-27T10:28:35.299Z,38.05
2023-04-27T10:29:35.313Z,40.10
2023-04-27T10:30:35.293Z,37.28
2023-04-27T10:31:35.316Z,37.12
2023-04-27T10:32:35.282Z,38.31
2023-04-27T10:33:35.235Z,36.70
2023-04-27T10:34:35.237Z,37.28
2023-04-27T10:35:35.204Z,36.29
2023-04-27T10:36:35.198Z,35.89
2023-04-27T10:37:35.183Z,34.53
2023-04-27T10:38:35.182Z,36.67
2023-04-27T10:39:47.017Z,38.17
2023-04-27T10:40:36.170Z,38.09
2023-04-27T10:41:35.145Z,37.25
2023-04-27T10:42:35.141Z,37.43
2023-04-27T10:43:35.112Z,37.41
2023-04-27T10:44:35.105Z,37.81
2023-04-27T10:45:35.119Z,37.13
2023-04-27T10:46:35.254Z,38.45
2023-04-27T10:47:35.135Z,38.96
2023-04-27T10:48:35.051Z,37.77
2023-04-27T10:49:35.038Z,38.31
2023-04-27T10:50:35.025Z,36.82
2023-04-27T10:51:35.021Z,37.38
2023-04-27T10:52:35.004Z,39.03
2023-04-27T10:53:34.996Z,40.35
2023-04-27T10:54:34.994Z,39.97
2023-04-27T10:55:34.967Z,41.17
2023-04-27T10:56:35.305Z,40.49
2023-04-27T10:57:34.939Z,42.19
2023-04-27T10:59:35.943Z,41.15
2023-04-27T11:00:34.902Z,43.13
2023-04-27T11:01:34.929Z,41.02
2023-04-27T11:02:34.913Z,39.41
2023-04-27T11:03:34.939Z,39.81
2023-04-27T11:04:34.870Z,40.61
2023-04-27T11:05:34.844Z,41.41
2023-04-27T11:06:34.836Z,39.79
2023-04-27T11:07:34.828Z,40.13
2023-04-27T11:08:34.813Z,40.47
2023-04-27T11:09:34.813Z,41.29
2023-04-27T11:10:34.786Z,42.19
2023-04-27T11:11:34.796Z,41.49
2023-04-27T11:12:34.813Z,41.91
2023-04-27T11:13:34.750Z,42.60
2023-04-27T11:14:34.727Z,40.69
2023-04-27T11:15:34.712Z,41.11
2023-04-27T11:16:34.773Z,42.99
2023-04-27T11:17:34.712Z,41.49
2023-04-27T11:18:34.691Z,42.99
2023-04-27T11:19:34.665Z,43.88
2023-04-27T11:20:34.653Z,42.93
2023-04-27T11:21:34.652Z,42.91
2023-04-27T11:22:34.632Z,40.91
2023-04-27T11:23:34.607Z,42.13
2023-04-27T11:24:34.602Z,41.82
2023-04-27T11:25:34.590Z,41.58
2023-04-27T11:26:34.591Z,40.78
2023-04-27T11:27:34.570Z,41.05
2023-04-27T11:28:34.552Z,39.20
2023-04-27T11:29:34.763Z,40.50
2023-04-27T11:30:34.528Z,40.31
2023-04-27T11:31:34.554Z,39.53
2023-04-27T11:32:34.561Z,41.38
2023-04-27T11:33:35.986Z,41.09
2023-04-27T11:34:34.495Z,41.49
2023-04-27T11:35:34.476Z,41.99
2023-04-27T11:36:34.455Z,41.97
2023-04-27T11:37:34.442Z,41.15
2023-04-27T11:38:34.451Z,42.66
2023-04-27T11:39:34.416Z,43.41
2023-04-27T11:40:34.400Z,40.39
2023-04-27T11:41:34.391Z,41.38
2023-04-27T11:42:34.386Z,41.16
2023-04-27T11:43:34.375Z,39.56
2023-04-27T11:44:34.353Z,39.15
2023-04-27T11:45:34.352Z,39.37
2023-04-27T11:46:34.364Z,39.89
2023-04-27T11:47:34.326Z,41.19
2023-04-27T11:48:34.333Z,42.38
2023-04-27T11:49:34.312Z,40.86
2023-04-27T11:50:34.296Z,39.43
2023-04-27T11:51:34.261Z,40.16
2023-04-27T11:52:34.257Z,41.05
2023-04-27T11:53:34.244Z,40.45
2023-04-27T11:54:34.228Z,41.25
2023-04-27T11:55:34.231Z,39.67
2023-04-27T11:56:34.210Z,40.78
2023-04-27T11:57:34.193Z,40.58
2023-04-27T11:58:34.185Z,40.50
2023-04-27T11:59:34.167Z,40.58
2023-04-27T12:00:34.157Z,39.37
2023-04-27T12:01:38.064Z,40.58
2023-04-27T12:02:34.246Z,40.37
2023-04-27T12:03:34.752Z,40.28
2023-04-27T12:04:34.217Z,41.05
2023-04-27T12:05:34.189Z,40.34
2023-04-27T12:06:34.395Z,38.70
2023-04-27T12:07:34.066Z,40.72
2023-04-27T12:08:34.069Z,40.42
2023-04-27T12:09:34.037Z,38.06
2023-04-27T12:10:34.024Z,40.39
2023-04-27T12:11:34.014Z,41.49
2023-04-27T12:12:34.004Z,41.66
2023-04-27T12:13:33.995Z,40.86
2023-04-27T12:14:33.988Z,40.04
2023-04-27T12:15:33.966Z,40.66
2023-04-27T12:16:33.983Z,40.45
2023-04-27T12:17:33.995Z,41.67
2023-04-27T12:18:33.945Z,42.38
2023-04-27T12:19:33.924Z,40.45
2023-04-27T12:20:33.907Z,40.25
2023-04-27T12:21:33.914Z,40.37
2023-04-27T12:22:33.875Z,41.11
2023-04-27T12:23:33.866Z,42.25
2023-04-27T12:24:33.852Z,44.35
2023-04-27T12:25:33.839Z,43.16
2023-04-27T12:26:33.822Z,42.54
2023-04-27T12:27:33.814Z,42.76
2023-04-27T12:28:33.802Z,44.56
2023-04-27T12:29:33.793Z,44.93
2023-04-27T12:30:33.791Z,44.51
2023-04-27T12:31:33.804Z,43.59
2023-04-27T12:32:33.774Z,42.19
2023-04-27T12:33:33.732Z,42.10
2023-04-27T12:34:33.732Z,42.52
2023-04-27T12:35:33.715Z,42.71
2023-04-27T12:36:33.760Z,42.47
2023-04-27T12:37:33.828Z,43.19
2023-04-27T12:38:33.709Z,44.42
2023-04-27T12:39:33.718Z,45.12
2023-04-27T12:40:33.653Z,45.02
2023-04-27T12:41:33.637Z,45.30
2023-04-27T12:42:33.971Z,44.50
2023-04-27T12:43:33.608Z,43.50
2023-04-27T12:44:33.611Z,44.12
2023-04-27T12:45:33.583Z,44.54
2023-04-27T12:46:33.615Z,44.84
2023-04-27T12:47:54.033Z,45.26
2023-04-27T12:48:34.614Z,45.79
2023-04-27T12:49:33.528Z,46.17
2023-04-27T12:50:33.523Z,46.27
2023-04-27T12:51:33.511Z,44.38
2023-04-27T12:52:33.574Z,45.61
2023-04-27T12:53:33.506Z,45.21